Aérodrome :
LOGIN :

S'inscrire | Disclaimer

   EN    FR    IT 

 










Légende :    VFR   VFR Marginal   IFR   IFR Intensif   IFR Très Intensif
Visi : 
Plafond : 
>= 8 km
>= 3000ft
5 à 8 km
1000 à 3000 ft
1500m à 5 km
500 à 1000 ft
800 à 1500m
200 à 500 ft
< 800m
< 200 ft
Symboles :   Orages  Brouillard  Fortes neiges  Fortes précipitations  Vent > 20 kt
SIGMETs :   Divers  Orages  Givrage  Turbulence  Onde Orograph.  Cendres Volcan.







- Altitude de l'aérodrome : 81 ft
- Code IATA : SCS
- Voir les cartes d'approche


EGPM - Scatsta

DERNIER METAR :
  • 231420Z AUTO 27031G42KT 9999 FEW005/// SCT034/// 08/M01 Q1018

METARs EXPIRÉS :
  • 231350Z AUTO 28027G37KT 9999 NCD 07/00 Q1018
  • 231320Z AUTO 28026KT 9999 FEW011/// SCT034/// BKN048/// 07/00 Q1017
  • 231250Z AUTO 28033KT 9999 FEW045/// 07/M01 Q1016
  • 231220Z AUTO 28033G45KT 9999 FEW042/// 06/M01 Q1016
  • 231150Z AUTO 28031G44KT 9999 FEW004/// SCT019/// BKN037/// 05/00 Q1015 RERA

TAF TAF EGPM
Valide du 23 à 06h jusqu'au 23 à 15h UTC


230458Z 2306/2315 26030G40KT 9999 FEW015CB
TEMPO 2306/2315 7000 -SHRA
TEMPO 2306/2314 26040G55KT
PROB40
TEMPO 2306/2315 4000 SHRA BKN012CB
Pas de NOTAMs connus pour ce terrain.
1 SIGMET publié pour la FIR Scottish (EGPX) :
 
Turbulence forte
EGPX SIGMET 03 VALID 231100/231500 EGRR
EGPX SCOTTISH FIR SEV TURB FCST NE OF LINE N6022 W01000 - N5819 E00248 SFC/FL060 MOV NE 15KT WKN=



MET'MAP, la Météo Aéronautique d'un coup d'oeil ! - Copyright ORBIFLY Décembre 2007 - Disclaimer

ORBIFLY MET'MAP TEAM :

Programmation & Développement : Alexandra Zaïnal
Conception & Développement : Baudouin d'Aumeries
Co-Programmation & Développement : Marc-Olivier Méhu
Soutien technique & logistique : Manuel Goepfert

Contact : metmap@orbifly.com




SOURCES & CREDITS :

   NOAA